createdAt,value
2015-07-26T00:00:04.029Z,14.9
2015-07-26T00:00:22.467Z,14.9
2015-07-26T00:00:40.982Z,14.9
2015-07-26T00:00:59.474Z,15
2015-07-26T00:01:17.849Z,15
2015-07-26T00:01:36.224Z,15
2015-07-26T00:01:55.059Z,15
2015-07-26T00:02:13.528Z,15
2015-07-26T00:02:31.981Z,14.9
2015-07-26T00:02:50.376Z,14.8
2015-07-26T00:03:09.001Z,14.8
2015-07-26T00:03:27.455Z,14.8
2015-07-26T00:03:46.021Z,14.9
2015-07-26T00:04:04.693Z,14.9
2015-07-26T00:04:23.318Z,14.9
2015-07-26T00:04:41.771Z,15
2015-07-26T00:05:00.150Z,15
2015-07-26T00:05:18.713Z,14.9
2015-07-26T00:05:37.134Z,15
2015-07-26T00:05:55.654Z,14.9
2015-07-26T00:06:14.045Z,14.9
2015-07-26T00:06:32.654Z,14.9
2015-07-26T00:06:51.174Z,15
2015-07-26T00:07:09.642Z,15
2015-07-26T00:07:28.252Z,14.9
2015-07-26T00:07:46.846Z,14.9
2015-07-26T00:08:05.473Z,14.8
2015-07-26T00:08:24.098Z,14.9
2015-07-26T00:08:42.457Z,14.9
2015-07-26T00:09:01.007Z,15
2015-07-26T00:09:19.601Z,15
2015-07-26T00:09:38.038Z,15.1
2015-07-26T00:09:56.774Z,15
2015-07-26T00:10:15.290Z,15.1
2015-07-26T00:10:33.790Z,15
2015-07-26T00:10:52.134Z,15
2015-07-26T00:11:10.526Z,14.9
2015-07-26T00:11:28.901Z,14.9
2015-07-26T00:11:47.573Z,14.9
2015-07-26T00:12:06.186Z,14.9
2015-07-26T00:12:24.811Z,14.8
2015-07-26T00:12:43.342Z,14.8
2015-07-26T00:13:01.828Z,14.8
2015-07-26T00:13:20.438Z,14.8
2015-07-26T00:13:39.031Z,14.8
2015-07-26T00:13:57.393Z,14.7
2015-07-26T00:14:15.893Z,14.8
2015-07-26T00:14:34.283Z,14.8
2015-07-26T00:14:52.783Z,14.8
2015-07-26T00:15:11.349Z,14.8
2015-07-26T00:15:29.927Z,14.8
2015-07-26T00:15:48.333Z,14.8
2015-07-26T00:16:07.210Z,14.8
2015-07-26T00:16:25.663Z,14.8
2015-07-26T00:16:44.070Z,14.8
2015-07-26T00:17:02.478Z,14.7
2015-07-26T00:17:20.900Z,14.7
2015-07-26T00:17:38.665Z,14.6
2015-07-26T00:17:57.072Z,14.7
2015-07-26T00:18:15.575Z,14.8
2015-07-26T00:18:33.950Z,14.7
2015-07-26T00:18:52.575Z,14.8
2015-07-26T00:19:11.030Z,14.8
2015-07-26T00:19:29.577Z,14.7
2015-07-26T00:19:47.952Z,14.7
2015-07-26T00:20:06.593Z,14.7
2015-07-26T00:20:24.968Z,14.7
2015-07-26T00:20:43.359Z,14.7
2015-07-26T00:21:01.734Z,14.8
2015-07-26T00:21:20.143Z,14.7
2015-07-26T00:21:38.565Z,14.7
2015-07-26T00:21:57.065Z,14.8
2015-07-26T00:22:15.551Z,14.7
2015-07-26T00:22:33.926Z,14.7
2015-07-26T00:22:52.301Z,14.7
2015-07-26T00:23:10.724Z,14.7
2015-07-26T00:23:29.084Z,14.7
2015-07-26T00:23:47.662Z,14.7
2015-07-26T00:24:06.195Z,14.6
2015-07-26T00:24:24.601Z,14.7
2015-07-26T00:24:43.023Z,14.7
2015-07-26T00:25:00.773Z,14.7
2015-07-26T00:25:19.181Z,14.7
2015-07-26T00:25:37.619Z,14.7
2015-07-26T00:25:56.010Z,14.8
2015-07-26T00:26:14.402Z,14.9
2015-07-26T00:26:32.887Z,14.9
2015-07-26T00:26:51.527Z,14.9
2015-07-26T00:27:10.045Z,15
2015-07-26T00:27:28.701Z,14.9
2015-07-26T00:27:47.060Z,14.9
2015-07-26T00:28:05.435Z,14.9
2015-07-26T00:28:24.000Z,14.9
2015-07-26T00:28:42.437Z,14.9
2015-07-26T00:29:01.016Z,14.8
2015-07-26T00:29:18.939Z,14.8
2015-07-26T00:29:37.439Z,14.9
2015-07-26T00:29:56.174Z,14.9
2015-07-26T00:30:14.660Z,15
2015-07-26T00:30:33.035Z,14.9
2015-07-26T00:30:51.613Z,14.9
2015-07-26T00:31:10.035Z,14.9
2015-07-26T00:31:28.803Z,14.8
2015-07-26T00:31:47.193Z,14.8
2015-07-26T00:32:05.553Z,14.8
2015-07-26T00:32:24.102Z,14.9
2015-07-26T00:32:42.633Z,14.9
2015-07-26T00:33:00.992Z,14.8
2015-07-26T00:33:19.447Z,14.8
2015-07-26T00:33:37.963Z,14.7
2015-07-26T00:33:56.369Z,14.7
2015-07-26T00:34:14.744Z,14.6
2015-07-26T00:34:33.184Z,14.7
2015-07-26T00:34:51.621Z,14.7
2015-07-26T00:35:10.137Z,14.7
2015-07-26T00:35:28.810Z,14.7
2015-07-26T00:35:46.529Z,14.7
2015-07-26T00:36:04.919Z,14.7
2015-07-26T00:36:23.328Z,14.6
2015-07-26T00:36:41.735Z,14.5
2015-07-26T00:37:00.141Z,14.5
2015-07-26T00:37:18.360Z,14.5
2015-07-26T00:37:36.737Z,14.6
2015-07-26T00:37:54.487Z,14.5
2015-07-26T00:38:12.924Z,14.5
2015-07-26T00:38:31.317Z,14.5
2015-07-26T00:38:49.676Z,14.6
2015-07-26T00:39:08.254Z,14.5
2015-07-26T00:39:26.850Z,14.4
2015-07-26T00:39:45.350Z,14.4
2015-07-26T00:40:03.928Z,14.4
2015-07-26T00:40:22.475Z,14.4
2015-07-26T00:40:40.976Z,14.5
2015-07-26T00:40:59.492Z,14.5
2015-07-26T00:41:18.101Z,14.5
2015-07-26T00:41:36.745Z,14.5
2015-07-26T00:41:55.073Z,14.5
2015-07-26T00:42:13.604Z,14.5
2015-07-26T00:42:32.122Z,14.5
2015-07-26T00:42:50.497Z,14.4
2015-07-26T00:43:09.012Z,14.5
2015-07-26T00:43:27.528Z,14.5
2015-07-26T00:43:46.091Z,14.4
2015-07-26T00:44:04.576Z,14.4
2015-07-26T00:44:22.998Z,14.4
2015-07-26T00:44:41.562Z,14.4
2015-07-26T00:45:00.140Z,14.4
2015-07-26T00:45:18.593Z,14.4
2015-07-26T00:45:37.081Z,14.4
2015-07-26T00:45:55.550Z,14.3
2015-07-26T00:46:13.940Z,14.3
2015-07-26T00:46:32.425Z,14.3
2015-07-26T00:46:50.832Z,14.4
2015-07-26T00:47:09.363Z,14.4
2015-07-26T00:47:27.926Z,14.4
2015-07-26T00:47:46.444Z,14.4
2015-07-26T00:48:04.491Z,14.5
2015-07-26T00:48:22.913Z,14.5
2015-07-26T00:48:41.290Z,14.6
2015-07-26T00:48:59.852Z,14.5
2015-07-26T00:49:18.384Z,14.4
2015-07-26T00:49:36.821Z,14.4
2015-07-26T00:49:55.307Z,14.3
2015-07-26T00:50:13.838Z,14.3
2015-07-26T00:50:32.588Z,14.4
2015-07-26T00:50:51.106Z,14.4
2015-07-26T00:51:09.794Z,14.3
2015-07-26T00:51:28.216Z,14.3
2015-07-26T00:51:46.733Z,14.3
2015-07-26T00:52:05.171Z,14.3
2015-07-26T00:52:23.577Z,14.2
2015-07-26T00:52:42.171Z,14.2
2015-07-26T00:53:00.985Z,14.2
2015-07-26T00:53:19.454Z,14.3
2015-07-26T00:53:37.814Z,14.3
2015-07-26T00:53:56.316Z,14.3
2015-07-26T00:54:15.066Z,14.4
2015-07-26T00:54:33.659Z,14.4
2015-07-26T00:54:52.113Z,14.4
2015-07-26T00:55:10.707Z,14.3
2015-07-26T00:55:29.348Z,14.3
2015-07-26T00:55:47.738Z,14.3
2015-07-26T00:56:05.444Z,14.4
2015-07-26T00:56:24.069Z,14.4
2015-07-26T00:56:42.819Z,14.4
2015-07-26T00:57:01.227Z,14.3
2015-07-26T00:57:19.789Z,14.3
2015-07-26T00:57:37.946Z,14.4
2015-07-26T00:57:56.401Z,14.5
2015-07-26T00:58:14.776Z,14.5
2015-07-26T00:58:33.479Z,14.5
2015-07-26T00:58:52.057Z,14.4
2015-07-26T00:59:10.529Z,14.4
2015-07-26T00:59:29.029Z,14.4
2015-07-26T00:59:47.560Z,14.5
2015-07-26T01:00:06.092Z,14.5
2015-07-26T01:00:24.561Z,14.5
2015-07-26T01:00:42.983Z,14.5
2015-07-26T01:01:01.610Z,14.5
2015-07-26T01:01:20.094Z,14.5
2015-07-26T01:01:38.547Z,14.4
2015-07-26T01:01:56.987Z,14.4
2015-07-26T01:02:15.456Z,14.4
2015-07-26T01:02:33.846Z,14.4
2015-07-26T01:02:52.549Z,14.4
2015-07-26T01:03:10.926Z,14.3
2015-07-26T01:03:29.208Z,14.3
2015-07-26T01:03:47.567Z,14.3
2015-07-26T01:04:05.960Z,14.3
2015-07-26T01:04:24.397Z,14.3
2015-07-26T01:04:42.991Z,14.2
2015-07-26T01:05:01.570Z,14.2
2015-07-26T01:05:19.320Z,14.2
2015-07-26T01:05:37.945Z,14.2
2015-07-26T01:05:56.351Z,14.2
2015-07-26T01:06:14.745Z,14.3
2015-07-26T01:06:33.229Z,14.3
2015-07-26T01:06:51.682Z,14.2
2015-07-26T01:07:10.153Z,14.2
2015-07-26T01:07:28.716Z,14.2
2015-07-26T01:07:47.325Z,14.2
2015-07-26T01:08:05.843Z,14.2
2015-07-26T01:08:24.405Z,14.2
2015-07-26T01:08:43.139Z,14.2
2015-07-26T01:09:00.921Z,14.2
2015-07-26T01:09:19.313Z,14.2
2015-07-26T01:09:37.798Z,14.1
2015-07-26T01:09:56.173Z,14
2015-07-26T01:10:14.783Z,14
2015-07-26T01:10:33.361Z,14.1
2015-07-26T01:10:51.767Z,14.1
2015-07-26T01:11:09.614Z,14.1
2015-07-26T01:11:28.395Z,14
2015-07-26T01:11:46.974Z,14
2015-07-26T01:12:05.505Z,14
2015-07-26T01:12:24.240Z,13.9
2015-07-26T01:12:42.818Z,14
2015-07-26T01:13:01.412Z,14
2015-07-26T01:13:19.805Z,14
2015-07-26T01:13:38.555Z,14.1
2015-07-26T01:13:57.008Z,14
2015-07-26T01:14:15.744Z,14
2015-07-26T01:14:34.119Z,14.1
2015-07-26T01:14:52.604Z,14.1
2015-07-26T01:15:11.041Z,14.1
2015-07-26T01:15:29.543Z,14
2015-07-26T01:15:48.090Z,14.1
2015-07-26T01:16:06.777Z,14.1
2015-07-26T01:16:25.420Z,14.1
2015-07-26T01:16:43.951Z,14.1
2015-07-26T01:17:02.498Z,14.1
2015-07-26T01:17:20.969Z,14.1
2015-07-26T01:17:39.469Z,14.1
2015-07-26T01:17:57.891Z,14.1
2015-07-26T01:18:16.471Z,14.1
2015-07-26T01:18:34.987Z,14.1
2015-07-26T01:18:53.674Z,14.1
2015-07-26T01:19:12.096Z,14.2
2015-07-26T01:19:30.645Z,14.2
2015-07-26T01:19:49.004Z,14.1
2015-07-26T01:20:07.364Z,14.1
2015-07-26T01:20:25.975Z,14.1
2015-07-26T01:20:44.412Z,14.1
2015-07-26T01:21:02.834Z,14.1
2015-07-26T01:21:21.259Z,14.1
2015-07-26T01:21:39.634Z,14
2015-07-26T01:21:58.025Z,14
2015-07-26T01:22:16.384Z,13.9
2015-07-26T01:22:34.807Z,13.9
2015-07-26T01:22:53.260Z,13.9
2015-07-26T01:23:11.838Z,13.8
2015-07-26T01:23:30.528Z,13.8
2015-07-26T01:23:48.918Z,13.9
2015-07-26T01:24:07.278Z,13.8
2015-07-26T01:24:25.670Z,13.8
2015-07-26T01:24:44.202Z,13.7
2015-07-26T01:25:02.561Z,13.8
2015-07-26T01:25:20.999Z,13.8
2015-07-26T01:25:39.454Z,13.8
2015-07-26T01:25:58.032Z,13.8
2015-07-26T01:26:16.704Z,13.9
2015-07-26T01:26:35.142Z,13.9
2015-07-26T01:26:53.689Z,13.8
2015-07-26T01:27:12.048Z,13.9
2015-07-26T01:27:30.817Z,13.9
2015-07-26T01:27:49.348Z,14
2015-07-26T01:28:07.817Z,14
2015-07-26T01:28:26.194Z,13.9
2015-07-26T01:28:44.616Z,13.9
2015-07-26T01:29:03.225Z,13.9
2015-07-26T01:29:21.803Z,13.8
2015-07-26T01:29:40.368Z,13.8
2015-07-26T01:29:58.790Z,13.8
2015-07-26T01:30:17.212Z,13.9
2015-07-26T01:30:35.776Z,13.9
2015-07-26T01:30:54.307Z,14
2015-07-26T01:31:13.089Z,13.9
2015-07-26T01:31:31.653Z,13.9
2015-07-26T01:31:50.309Z,13.9
2015-07-26T01:32:09.013Z,13.9
2015-07-26T01:32:27.419Z,14
2015-07-26T01:32:45.952Z,14
2015-07-26T01:33:04.405Z,14
2015-07-26T01:33:22.952Z,13.9
2015-07-26T01:33:41.345Z,13.9
2015-07-26T01:33:59.938Z,13.9
2015-07-26T01:34:18.438Z,13.8
2015-07-26T01:34:37.003Z,13.8
2015-07-26T01:34:55.534Z,13.7
2015-07-26T01:35:14.050Z,13.7
2015-07-26T01:35:32.565Z,13.6
2015-07-26T01:35:51.021Z,13.7
2015-07-26T01:36:09.646Z,13.7
2015-07-26T01:36:28.067Z,13.8
2015-07-26T01:36:46.429Z,13.8
2015-07-26T01:37:04.835Z,13.8
2015-07-26T01:37:23.273Z,13.7
2015-07-26T01:37:41.633Z,13.7
2015-07-26T01:38:00.102Z,13.7
2015-07-26T01:38:18.508Z,13.7
2015-07-26T01:38:37.055Z,13.6
2015-07-26T01:38:55.760Z,13.6
2015-07-26T01:39:14.244Z,13.6
2015-07-26T01:39:32.776Z,13.7
2015-07-26T01:39:51.138Z,13.7
2015-07-26T01:40:09.575Z,13.8
2015-07-26T01:40:28.138Z,13.7
2015-07-26T01:40:46.717Z,13.7
2015-07-26T01:41:05.155Z,13.8
2015-07-26T01:41:23.811Z,13.8
2015-07-26T01:41:42.186Z,13.8
2015-07-26T01:42:00.548Z,13.7
2015-07-26T01:42:19.079Z,13.7
2015-07-26T01:42:37.689Z,13.7
2015-07-26T01:42:56.159Z,13.7
2015-07-26T01:43:14.799Z,13.7
2015-07-26T01:43:33.252Z,13.7
2015-07-26T01:43:51.770Z,13.7
2015-07-26T01:44:10.614Z,13.7
2015-07-26T01:44:29.051Z,13.7
2015-07-26T01:44:47.476Z,13.7
2015-07-26T01:45:06.007Z,13.7
2015-07-26T01:45:24.539Z,13.7
2015-07-26T01:45:43.039Z,13.7
2015-07-26T01:46:01.586Z,13.7
2015-07-26T01:46:19.977Z,13.7
2015-07-26T01:46:38.524Z,13.7
2015-07-26T01:46:57.010Z,13.7
2015-07-26T01:47:15.401Z,13.7
2015-07-26T01:47:33.838Z,13.6
2015-07-26T01:47:52.278Z,13.6
2015-07-26T01:48:10.669Z,13.6
2015-07-26T01:48:29.028Z,13.6
2015-07-26T01:48:47.434Z,13.7
2015-07-26T01:49:05.983Z,13.7
2015-07-26T01:49:24.389Z,13.7
2015-07-26T01:49:43.014Z,13.6
2015-07-26T01:50:01.423Z,13.6
2015-07-26T01:50:19.876Z,13.5
2015-07-26T01:50:38.469Z,13.5
2015-07-26T01:50:57.268Z,13.4
2015-07-26T01:51:15.690Z,13.4
2015-07-26T01:51:34.112Z,13.3
2015-07-26T01:51:52.596Z,13.4
2015-07-26T01:52:11.161Z,13.4
2015-07-26T01:52:29.520Z,13.4
2015-07-26T01:52:48.083Z,13.4
2015-07-26T01:53:06.475Z,13.4
2015-07-26T01:53:24.882Z,13.4
2015-07-26T01:53:43.335Z,13.4
2015-07-26T01:54:02.024Z,13.4
2015-07-26T01:54:20.399Z,13.3
2015-07-26T01:54:38.868Z,13.3
2015-07-26T01:54:57.321Z,13.4
2015-07-26T01:55:15.791Z,13.4
2015-07-26T01:55:33.650Z,13.5
2015-07-26T01:55:52.088Z,13.5
2015-07-26T01:56:10.560Z,13.6
2015-07-26T01:56:29.060Z,13.6
2015-07-26T01:56:47.481Z,13.6
2015-07-26T01:57:05.890Z,13.7
2015-07-26T01:57:24.374Z,13.7
2015-07-26T01:57:42.968Z,13.7
2015-07-26T01:58:01.343Z,13.7
2015-07-26T01:58:19.704Z,13.7
2015-07-26T01:58:38.095Z,13.7
2015-07-26T01:58:56.689Z,13.7
2015-07-26T01:59:20.128Z,13.7
2015-07-26T01:59:38.503Z,13.6
2015-07-26T01:59:57.019Z,13.6
2015-07-26T02:00:15.521Z,13.6
2015-07-26T02:00:34.005Z,13.5
2015-07-26T02:00:52.552Z,13.6
2015-07-26T02:01:11.023Z,13.6
2015-07-26T02:01:29.491Z,13.6
2015-07-26T02:01:48.085Z,13.6
2015-07-26T02:02:06.460Z,13.6
2015-07-26T02:02:24.868Z,13.5
2015-07-26T02:02:43.228Z,13.5
2015-07-26T02:03:01.728Z,13.4
2015-07-26T02:03:20.119Z,13.4
2015-07-26T02:03:38.494Z,13.4
2015-07-26T02:03:57.119Z,13.4
2015-07-26T02:04:15.512Z,13.4
2015-07-26T02:04:33.887Z,13.3
2015-07-26T02:04:52.340Z,13.3
2015-07-26T02:05:10.903Z,13.3
2015-07-26T02:05:29.296Z,13.4
2015-07-26T02:05:47.578Z,13.3
2015-07-26T02:06:05.953Z,13.3
2015-07-26T02:06:24.423Z,13.4
2015-07-26T02:06:43.017Z,13.4
2015-07-26T02:07:01.376Z,13.5
2015-07-26T02:07:20.160Z,13.5
2015-07-26T02:07:38.722Z,13.5
2015-07-26T02:07:57.097Z,13.5
2015-07-26T02:08:15.519Z,13.5
2015-07-26T02:08:34.020Z,13.4
2015-07-26T02:08:52.708Z,13.4
2015-07-26T02:09:11.129Z,13.5
2015-07-26T02:09:29.523Z,13.5
2015-07-26T02:09:48.023Z,13.4
2015-07-26T02:10:06.586Z,13.3
2015-07-26T02:10:24.508Z,13.3
2015-07-26T02:10:43.024Z,13.3
2015-07-26T02:11:01.415Z,13.3
2015-07-26T02:11:19.946Z,13.2
2015-07-26T02:11:38.495Z,13.2
2015-07-26T02:11:56.932Z,13.3
2015-07-26T02:12:15.370Z,13.3
2015-07-26T02:12:33.935Z,13.3
2015-07-26T02:12:52.373Z,13.4
2015-07-26T02:13:10.967Z,13.4
2015-07-26T02:13:29.483Z,13.3
2015-07-26T02:13:47.905Z,13.3
2015-07-26T02:14:06.483Z,13.2
2015-07-26T02:14:24.858Z,13.2
2015-07-26T02:14:43.220Z,13.2
2015-07-26T02:15:01.751Z,13.2
2015-07-26T02:15:20.220Z,13.1
2015-07-26T02:15:38.660Z,13.2
2015-07-26T02:15:57.129Z,13.2
2015-07-26T02:16:15.644Z,13.2
2015-07-26T02:16:34.739Z,13.2
2015-07-26T02:16:53.349Z,13.2
2015-07-26T02:17:11.974Z,13.2
2015-07-26T02:17:30.583Z,13.2
2015-07-26T02:17:49.226Z,13.1
2015-07-26T02:18:07.726Z,13.1
2015-07-26T02:18:26.272Z,13.1
2015-07-26T02:18:44.962Z,13.2
2015-07-26T02:19:03.212Z,13.2
2015-07-26T02:19:21.681Z,13.2
2015-07-26T02:19:40.245Z,13.2
2015-07-26T02:19:58.839Z,13.3
2015-07-26T02:20:17.355Z,13.3
2015-07-26T02:20:35.823Z,13.3
2015-07-26T02:20:54.294Z,13.2
2015-07-26T02:21:12.982Z,13.1
2015-07-26T02:21:31.403Z,13.1
2015-07-26T02:21:50.140Z,13.1
2015-07-26T02:22:08.577Z,13.2
2015-07-26T02:22:26.796Z,13.2
2015-07-26T02:22:45.361Z,13.1
2015-07-26T02:23:03.720Z,13.1
2015-07-26T02:23:22.282Z,13.1
2015-07-26T02:23:39.986Z,13.2
2015-07-26T02:23:58.581Z,13.2
2015-07-26T02:24:16.956Z,13.2
2015-07-26T02:24:35.378Z,13.2
2015-07-26T02:24:53.927Z,13.2
2015-07-26T02:25:12.333Z,13.2
2015-07-26T02:25:30.802Z,13.3
2015-07-26T02:25:49.242Z,13.2
2015-07-26T02:26:07.679Z,13.2
2015-07-26T02:26:26.085Z,13.2
2015-07-26T02:26:44.773Z,13.2
2015-07-26T02:27:03.134Z,13.2
2015-07-26T02:27:21.587Z,13.1
2015-07-26T02:27:40.009Z,13.1
2015-07-26T02:27:58.386Z,13.1
2015-07-26T02:28:16.855Z,13.1
2015-07-26T02:28:35.324Z,13.1
2015-07-26T02:28:53.748Z,13.2
2015-07-26T02:29:12.216Z,13.2
2015-07-26T02:29:30.779Z,13.2
2015-07-26T02:29:49.154Z,13.2
2015-07-26T02:30:07.592Z,13.2
2015-07-26T02:30:25.967Z,13.1
2015-07-26T02:30:44.577Z,13.1
2015-07-26T02:31:03.127Z,13
2015-07-26T02:31:21.767Z,13
2015-07-26T02:31:40.189Z,13
2015-07-26T02:31:58.863Z,13
2015-07-26T02:32:17.363Z,13
2015-07-26T02:32:35.925Z,13
2015-07-26T02:32:54.410Z,12.9
2015-07-26T02:33:12.787Z,13
2015-07-26T02:33:31.146Z,13
2015-07-26T02:33:49.599Z,12.9
2015-07-26T02:34:08.054Z,12.9
2015-07-26T02:34:26.445Z,12.9
2015-07-26T02:34:44.867Z,12.9
2015-07-26T02:35:03.290Z,13
2015-07-26T02:35:21.712Z,13
2015-07-26T02:35:40.071Z,13
2015-07-26T02:35:58.555Z,13.1
2015-07-26T02:36:16.995Z,13.1
2015-07-26T02:36:35.604Z,13.2
2015-07-26T02:36:54.073Z,13.2
2015-07-26T02:37:12.514Z,13.2
2015-07-26T02:37:30.873Z,13.1
2015-07-26T02:37:49.357Z,13.1
2015-07-26T02:38:07.781Z,13.1
2015-07-26T02:38:26.375Z,13.1
2015-07-26T02:38:45.000Z,13.1
2015-07-26T02:39:02.923Z,13.1
2015-07-26T02:39:21.313Z,13
2015-07-26T02:39:39.829Z,13
2015-07-26T02:39:57.688Z,13
2015-07-26T02:40:16.237Z,13.1
2015-07-26T02:40:34.753Z,13.1
2015-07-26T02:40:53.128Z,13.1
2015-07-26T02:41:10.942Z,13.1
2015-07-26T02:41:29.692Z,13.1
2015-07-26T02:41:48.177Z,13.1
2015-07-26T02:42:06.741Z,13.1
2015-07-26T02:42:25.210Z,13.1
2015-07-26T02:42:43.710Z,13.1
2015-07-26T02:43:01.538Z,13.1
2015-07-26T02:43:20.056Z,13.1
2015-07-26T02:43:38.603Z,13.1
2015-07-26T02:43:57.118Z,13
2015-07-26T02:44:15.683Z,13
2015-07-26T02:44:34.042Z,13
2015-07-26T02:44:52.105Z,13
2015-07-26T02:45:10.436Z,13
2015-07-26T02:45:29.076Z,12.9
2015-07-26T02:45:47.639Z,12.9
2015-07-26T02:46:06.045Z,12.9
2015-07-26T02:46:24.609Z,12.8
2015-07-26T02:46:43.015Z,12.7
2015-07-26T02:47:01.656Z,12.7
2015-07-26T02:47:19.376Z,12.7
2015-07-26T02:47:37.939Z,12.7
2015-07-26T02:47:56.501Z,12.7
2015-07-26T02:48:14.972Z,12.8
2015-07-26T02:48:33.410Z,12.7
2015-07-26T02:48:51.910Z,12.7
2015-07-26T02:49:10.347Z,12.8
2015-07-26T02:49:29.021Z,12.9
2015-07-26T02:49:46.958Z,12.9
2015-07-26T02:50:05.771Z,12.9
2015-07-26T02:50:24.320Z,12.9
2015-07-26T02:50:42.742Z,12.9
2015-07-26T02:51:01.367Z,12.9
2015-07-26T02:51:19.961Z,13
2015-07-26T02:51:38.321Z,13
2015-07-26T02:51:56.993Z,13
2015-07-26T02:52:15.558Z,12.9
2015-07-26T02:52:33.949Z,12.9
2015-07-26T02:52:52.308Z,12.8
2015-07-26T02:53:10.793Z,12.8
2015-07-26T02:53:29.154Z,12.9
2015-07-26T02:53:47.545Z,12.9
2015-07-26T02:54:05.904Z,12.8
2015-07-26T02:54:24.343Z,12.9
2015-07-26T02:54:42.703Z,12.8
2015-07-26T02:55:01.297Z,12.8
2015-07-26T02:55:19.892Z,12.8
2015-07-26T02:55:38.408Z,12.8
2015-07-26T02:55:56.924Z,12.8
2015-07-26T02:56:15.361Z,12.7
2015-07-26T02:56:33.159Z,12.7
2015-07-26T02:56:51.628Z,12.7
2015-07-26T02:57:10.175Z,12.7
2015-07-26T02:57:28.645Z,12.7
2015-07-26T02:57:47.223Z,12.7
2015-07-26T02:58:05.661Z,12.7
2015-07-26T02:58:24.242Z,12.7
2015-07-26T02:58:42.836Z,12.7
2015-07-26T02:59:01.336Z,12.7
2015-07-26T02:59:19.867Z,12.7
2015-07-26T02:59:38.556Z,12.6
2015-07-26T02:59:57.259Z,12.6
2015-07-26T03:00:15.899Z,12.6
2015-07-26T03:00:34.418Z,12.6
2015-07-26T03:00:52.793Z,12.6
2015-07-26T03:01:11.371Z,12.5
2015-07-26T03:01:29.998Z,12.6
2015-07-26T03:01:47.967Z,12.6
2015-07-26T03:02:06.373Z,12.6
2015-07-26T03:02:24.749Z,12.5
2015-07-26T03:02:43.187Z,12.5
2015-07-26T03:03:01.874Z,12.6
2015-07-26T03:03:20.562Z,12.6
2015-07-26T03:03:39.143Z,12.6
2015-07-26T03:03:57.690Z,12.5
2015-07-26T03:04:16.096Z,12.6
2015-07-26T03:04:34.628Z,12.7
2015-07-26T03:04:53.003Z,12.6
2015-07-26T03:05:11.378Z,12.6
2015-07-26T03:05:30.052Z,12.5
2015-07-26T03:05:48.786Z,12.6
2015-07-26T03:06:07.349Z,12.6
2015-07-26T03:06:26.146Z,12.6
2015-07-26T03:06:44.710Z,12.6
2015-07-26T03:07:03.148Z,12.7
2015-07-26T03:07:21.695Z,12.6
2015-07-26T03:07:39.618Z,12.6
2015-07-26T03:07:58.150Z,12.6
2015-07-26T03:08:16.587Z,12.5
2015-07-26T03:08:35.182Z,12.5
2015-07-26T03:08:53.573Z,12.5
2015-07-26T03:09:11.338Z,12.5
2015-07-26T03:09:29.213Z,12.5
2015-07-26T03:09:47.638Z,12.4
2015-07-26T03:10:06.013Z,12.4
2015-07-26T03:10:24.326Z,12.5
2015-07-26T03:10:42.953Z,12.4
2015-07-26T03:11:01.296Z,12.5
2015-07-26T03:11:19.765Z,12.4
2015-07-26T03:11:38.314Z,12.5
2015-07-26T03:11:56.689Z,12.5
2015-07-26T03:12:15.423Z,12.4
2015-07-26T03:12:33.861Z,12.4
2015-07-26T03:12:52.299Z,12.4
2015-07-26T03:13:10.768Z,12.4
2015-07-26T03:13:29.440Z,12.4
2015-07-26T03:13:48.037Z,12.3
2015-07-26T03:14:06.505Z,12.3
2015-07-26T03:14:25.037Z,12.3
2015-07-26T03:14:43.429Z,12.3
2015-07-26T03:15:02.242Z,12.4
2015-07-26T03:15:20.632Z,12.5
2015-07-26T03:15:39.150Z,12.5
2015-07-26T03:15:57.541Z,12.5
2015-07-26T03:16:16.103Z,12.6
2015-07-26T03:16:34.447Z,12.6
2015-07-26T03:16:52.980Z,12.5
2015-07-26T03:17:11.433Z,12.5
2015-07-26T03:17:29.308Z,12.5
2015-07-26T03:17:48.060Z,12.6
2015-07-26T03:18:06.685Z,12.5
2015-07-26T03:18:25.295Z,12.5
2015-07-26T03:18:43.719Z,12.5
2015-07-26T03:19:02.203Z,12.6
2015-07-26T03:19:20.719Z,12.5
2015-07-26T03:19:39.281Z,12.5
2015-07-26T03:19:57.736Z,12.4
2015-07-26T03:20:16.127Z,12.4
2015-07-26T03:20:34.736Z,12.4
2015-07-26T03:20:53.112Z,12.4
2015-07-26T03:21:11.831Z,12.5
2015-07-26T03:21:30.331Z,12.4
2015-07-26T03:21:48.880Z,12.4
2015-07-26T03:22:07.317Z,12.4
2015-07-26T03:22:25.692Z,12.4
2015-07-26T03:22:44.302Z,12.4
2015-07-26T03:23:02.742Z,12.3
2015-07-26T03:23:21.117Z,12.3
2015-07-26T03:23:39.492Z,12.3
2015-07-26T03:23:57.932Z,12.2
2015-07-26T03:24:16.588Z,12.3
2015-07-26T03:24:35.010Z,12.2
2015-07-26T03:24:53.620Z,12.2
2015-07-26T03:25:12.136Z,12.3
2015-07-26T03:25:30.495Z,12.3
2015-07-26T03:25:48.980Z,12.3
2015-07-26T03:26:07.436Z,12.2
2015-07-26T03:26:25.858Z,12.2
2015-07-26T03:26:44.451Z,12.3
2015-07-26T03:27:02.859Z,12.3
2015-07-26T03:27:21.249Z,12.3
2015-07-26T03:27:39.718Z,12.3
2015-07-26T03:27:58.392Z,12.3
2015-07-26T03:28:16.782Z,12.3
2015-07-26T03:28:35.345Z,12.3
2015-07-26T03:28:53.892Z,12.3
2015-07-26T03:29:12.269Z,12.3
2015-07-26T03:29:30.691Z,12.2
2015-07-26T03:29:49.050Z,12.3
2015-07-26T03:30:07.427Z,12.4
2015-07-26T03:30:25.896Z,12.4
2015-07-26T03:30:44.443Z,12.5
2015-07-26T03:31:02.898Z,12.5
2015-07-26T03:31:21.460Z,12.5
2015-07-26T03:31:39.820Z,12.5
2015-07-26T03:31:58.367Z,12.5
2015-07-26T03:32:16.837Z,12.5
2015-07-26T03:32:35.369Z,12.6
2015-07-26T03:32:53.915Z,12.6
2015-07-26T03:33:12.340Z,12.6
2015-07-26T03:33:30.918Z,12.7
2015-07-26T03:33:49.418Z,12.6
2015-07-26T03:34:07.779Z,12.5
2015-07-26T03:34:26.388Z,12.6
2015-07-26T03:34:44.888Z,12.6
2015-07-26T03:35:03.482Z,12.6
2015-07-26T03:35:21.906Z,12.7
2015-07-26T03:35:40.562Z,12.6
2015-07-26T03:35:58.953Z,12.6
2015-07-26T03:36:17.455Z,12.6
2015-07-26T03:36:35.814Z,12.5
2015-07-26T03:36:54.283Z,12.5
2015-07-26T03:37:12.816Z,12.5
2015-07-26T03:37:31.488Z,12.5
2015-07-26T03:37:49.957Z,12.5
2015-07-26T03:38:08.597Z,12.5
2015-07-26T03:38:26.974Z,12.5
2015-07-26T03:38:45.552Z,12.5
2015-07-26T03:39:04.271Z,12.5
2015-07-26T03:39:22.633Z,12.5
2015-07-26T03:39:41.133Z,12.5
2015-07-26T03:39:59.695Z,12.5
2015-07-26T03:40:18.072Z,12.5
2015-07-26T03:40:36.431Z,12.5
2015-07-26T03:40:54.853Z,12.5
2015-07-26T03:41:13.322Z,12.5
2015-07-26T03:41:31.730Z,12.5
2015-07-26T03:41:50.183Z,12.5
2015-07-26T03:42:08.699Z,12.5
2015-07-26T03:42:27.294Z,12.4
2015-07-26T03:42:45.888Z,12.5
2015-07-26T03:43:04.263Z,12.5
2015-07-26T03:43:22.703Z,12.6
2015-07-26T03:43:41.156Z,12.5
2015-07-26T03:43:59.609Z,12.5
2015-07-26T03:44:18.094Z,12.5
2015-07-26T03:44:36.596Z,12.5
2015-07-26T03:44:55.002Z,12.4
2015-07-26T03:45:13.627Z,12.4
2015-07-26T03:45:31.503Z,12.5
2015-07-26T03:45:50.081Z,12.5
2015-07-26T03:46:08.753Z,12.5
2015-07-26T03:46:27.365Z,12.6
2015-07-26T03:46:45.865Z,12.6
2015-07-26T03:47:04.443Z,12.6
2015-07-26T03:47:22.943Z,12.6
2015-07-26T03:47:41.383Z,12.7
2015-07-26T03:47:59.992Z,12.7
2015-07-26T03:48:18.414Z,12.6
2015-07-26T03:48:37.010Z,12.6
2015-07-26T03:48:55.432Z,12.6
2015-07-26T03:49:13.901Z,12.7
2015-07-26T03:49:32.528Z,12.7
2015-07-26T03:49:51.278Z,12.7
2015-07-26T03:50:09.653Z,12.7
2015-07-26T03:50:28.279Z,12.7
2015-07-26T03:50:46.654Z,12.6
2015-07-26T03:51:05.029Z,12.6
2015-07-26T03:51:23.404Z,12.5
2015-07-26T03:51:41.952Z,12.5
2015-07-26T03:52:00.499Z,12.5
2015-07-26T03:52:19.062Z,12.5
2015-07-26T03:52:37.439Z,12.5
2015-07-26T03:52:56.064Z,12.5
2015-07-26T03:53:14.423Z,12.6
2015-07-26T03:53:33.050Z,12.6
2015-07-26T03:53:51.519Z,12.5
2015-07-26T03:54:09.941Z,12.5
2015-07-26T03:54:28.300Z,12.5
2015-07-26T03:54:46.865Z,12.5
2015-07-26T03:55:05.255Z,12.4
2015-07-26T03:55:23.693Z,12.4
2015-07-26T03:55:42.071Z,12.4
2015-07-26T03:56:00.508Z,12.4
2015-07-26T03:56:18.899Z,12.4
2015-07-26T03:56:37.322Z,12.5
2015-07-26T03:56:55.744Z,12.5
2015-07-26T03:57:14.119Z,12.4
2015-07-26T03:57:32.572Z,12.5
2015-07-26T03:57:51.074Z,12.5
2015-07-26T03:58:09.652Z,12.6
2015-07-26T03:58:28.027Z,12.6
2015-07-26T03:58:46.435Z,12.5
2015-07-26T03:59:05.013Z,12.6
2015-07-26T03:59:23.420Z,12.5
2015-07-26T03:59:41.843Z,12.5
2015-07-26T04:00:00.343Z,12.6
2015-07-26T04:00:18.812Z,12.5
2015-07-26T04:00:37.265Z,12.5
2015-07-26T04:00:55.861Z,12.6
2015-07-26T04:01:14.236Z,12.6
2015-07-26T04:01:32.720Z,12.7
2015-07-26T04:01:51.129Z,12.8
2015-07-26T04:02:09.629Z,12.8
2015-07-26T04:02:28.004Z,12.8
2015-07-26T04:02:46.693Z,12.8
2015-07-26T04:03:05.068Z,12.7
2015-07-26T04:03:23.474Z,12.7
2015-07-26T04:03:41.740Z,12.7
2015-07-26T04:04:00.180Z,12.7
2015-07-26T04:04:18.648Z,12.7
2015-07-26T04:04:37.008Z,12.6
2015-07-26T04:04:55.510Z,12.5
2015-07-26T04:05:13.916Z,12.6
2015-07-26T04:05:32.353Z,12.7
2015-07-26T04:05:50.809Z,12.7
2015-07-26T04:06:09.230Z,12.7
2015-07-26T04:06:27.730Z,12.7
2015-07-26T04:06:46.215Z,12.6
2015-07-26T04:07:04.686Z,12.6